Time;durP1;ratioP1;P1;durP2;ratioP2;P2;SDS_P1;SDS_P2;PMS_P1;PMS_P2;Temp;Humidity;BMP_temperature;BMP_pressure;BME280_temperature;BME280_humidity;BME280_pressure;Samples;Min_cycle;Max_cycle;Signal;HPM_P1;HPM_P2
2023/09/12 00:00:11;;;;;;;;;;;;;;;16.61;59.86;100564.17;109246;1263;59176;-89
2023/09/12 00:03:40;;;;;;;;;;;;;;;16.62;59.76;100564.64;109260;1263;58816;-89
2023/09/12 00:07:05;;;;;;;;;;;;;;;16.58;59.75;100561.14;109216;1263;74038;-89
2023/09/12 00:10:31;;;;;;;;;;;;;;;16.51;59.90;100562.48;109222;1263;67302;-89
2023/09/12 00:13:57;;;;;;;;;;;;;;;16.45;60.01;100560.27;109213;1263;71237;-89
2023/09/12 00:17:23;;;;;;;;;;;;;;;16.48;60.07;100557.90;109199;1263;58832;-89
2023/09/12 00:20:48;;;;;;;;;;;;;;;16.49;60.01;100556.11;109246;1263;59657;-89
2023/09/12 00:24:14;;;;;;;;;;;;;;;16.46;59.98;100557.48;109199;1263;73343;-89
2023/09/12 00:27:40;;;;;;;;;;;;;;;16.45;60.13;100559.77;108916;1267;67301;-89
2023/09/12 00:31:06;;;;;;;;;;;;;;;16.42;60.22;100561.64;108882;1267;71324;-89
2023/09/12 00:34:31;;;;;;;;;;;;;;;16.41;60.22;100562.03;108894;1267;58852;-89
2023/09/12 00:37:57;;;;;;;;;;;;;;;16.39;60.30;100561.41;108889;1266;59379;-88
2023/09/12 00:41:11;;;;;;;;;;;;;;;16.34;60.21;100561.95;108896;1267;73245;-89
2023/09/12 00:44:36;;;;;;;;;;;;;;;16.29;60.27;100564.06;108886;1267;68618;-89
2023/09/12 00:48:03;;;;;;;;;;;;;;;16.27;60.29;100563.13;108873;1267;72506;-89
2023/09/12 00:51:28;;;;;;;;;;;;;;;16.25;60.34;100560.95;108821;1268;58339;-89
2023/09/12 00:54:54;;;;;;;;;;;;;;;16.23;60.52;100559.27;108703;1271;59616;-89
2023/09/12 00:58:20;;;;;;;;;;;;;;;16.16;60.47;100561.11;108798;1268;73117;-89
2023/09/12 01:01:46;;;;;;;;;;;;;;;16.16;60.55;100565.13;108868;1268;69633;-89
2023/09/12 01:05:12;;;;;;;;;;;;;;;16.10;60.67;100564.34;108825;1268;72832;-89
2023/09/12 01:08:38;;;;;;;;;;;;;;;16.13;60.64;100568.90;108828;1268;58999;-88
2023/09/12 01:12:04;;;;;;;;;;;;;;;16.08;60.74;100570.86;108843;1268;58808;-89
2023/09/12 01:15:29;;;;;;;;;;;;;;;16.04;60.81;100568.78;108744;1269;73257;-88
2023/09/12 01:18:55;;;;;;;;;;;;;;;16.01;60.73;100566.45;86208;1270;20070533;-89
2023/09/12 01:22:22;;;;;;;;;;;;;;;15.99;60.83;100570.02;108766;1270;71378;-89
2023/09/12 01:26:06;;;;;;;;;;;;;;;15.94;60.77;100568.45;108426;1276;59315;-89
2023/09/12 01:29:33;;;;;;;;;;;;;;;15.88;60.94;100568.66;107805;1282;60047;-89
2023/09/12 01:32:59;;;;;;;;;;;;;;;15.91;60.94;100572.23;107828;1282;73901;-88
2023/09/12 01:36:25;;;;;;;;;;;;;;;15.92;60.90;100569.75;107797;1282;68399;-89
2023/09/12 01:39:51;;;;;;;;;;;;;;;15.86;61.00;100571.02;107862;1280;71343;-89
2023/09/12 01:43:16;;;;;;;;;;;;;;;15.81;61.10;100575.38;103997;1279;5062139;-89
2023/09/12 01:46:42;;;;;;;;;;;;;;;15.79;61.17;100576.67;108142;1277;59009;-89
2023/09/12 01:50:08;;;;;;;;;;;;;;;15.75;61.09;100579.78;108129;1279;72326;-89
2023/09/12 01:53:35;;;;;;;;;;;;;;;15.72;61.12;100583.38;107793;1282;67388;-89
2023/09/12 01:57:01;;;;;;;;;;;;;;;15.67;61.09;100584.07;107763;1283;72240;-89
2023/09/12 02:00:27;;;;;;;;;;;;;;;15.66;61.10;100586.38;108162;1276;59168;-89
2023/09/12 02:03:53;;;;;;;;;;;;;;;15.61;61.17;100584.83;108758;1270;59276;-89
2023/09/12 02:07:19;;;;;;;;;;;;;;;15.50;61.20;100588.52;108795;1270;73247;-89
2023/09/12 02:10:45;;;;;;;;;;;;;;;15.48;61.31;100590.52;108745;1270;67370;-89
2023/09/12 02:14:11;;;;;;;;;;;;;;;15.44;61.20;100586.83;108737;1270;70518;-88
2023/09/12 02:17:38;;;;;;;;;;;;;;;15.37;61.35;100587.08;108740;1270;58408;-89
2023/09/12 02:21:02;;;;;;;;;;;;;;;15.34;61.46;100584.95;108756;1270;58976;-89
2023/09/12 02:24:28;;;;;;;;;;;;;;;15.34;61.49;100581.13;108563;1273;73257;-89
2023/09/12 02:27:54;;;;;;;;;;;;;;;15.35;61.49;100581.98;108548;1274;67021;-88
2023/09/12 02:31:20;;;;;;;;;;;;;;;15.33;61.43;100578.91;108846;1267;71064;-89
2023/09/12 02:34:46;;;;;;;;;;;;;;;15.18;61.48;100575.63;108895;1267;59072;-89
2023/09/12 02:38:12;;;;;;;;;;;;;;;15.08;61.68;100574.23;108897;1267;59662;-89
2023/09/12 02:41:37;;;;;;;;;;;;;;;15.12;61.77;100576.54;108924;1267;74054;-89
2023/09/12 02:45:04;;;;;;;;;;;;;;;15.11;61.81;100576.38;108870;1267;66128;-89
2023/09/12 02:48:30;;;;;;;;;;;;;;;15.14;61.73;100578.19;108896;1267;73862;-89
2023/09/12 02:51:56;;;;;;;;;;;;;;;15.17;61.70;100577.40;108901;1267;59328;-89
2023/09/12 02:55:03;;;;;;;;;;;;;;;15.13;61.73;100573.54;108891;1267;59024;-88
2023/09/12 02:58:29;;;;;;;;;;;;;;;15.07;61.78;100573.59;108858;1268;73224;-89
2023/09/12 03:01:56;;;;;;;;;;;;;;;15.02;61.88;100571.70;108650;1271;67274;-89
2023/09/12 03:05:21;;;;;;;;;;;;;;;15.01;61.85;100571.38;108642;1271;71348;-89
2023/09/12 03:08:47;;;;;;;;;;;;;;;14.96;62.02;100571.41;108634;1271;58963;-89
2023/09/12 03:12:02;;;;;;;;;;;;;;;14.94;61.95;100570.43;108650;1271;59269;-88
2023/09/12 03:15:27;;;;;;;;;;;;;;;14.91;62.02;100572.25;108657;1271;74464;-88
2023/09/12 03:18:53;;;;;;;;;;;;;;;14.90;62.00;100573.34;108633;1271;67374;-88
2023/09/12 03:21:59;;;;;;;;;;;;;;;14.84;62.01;100574.39;108634;1271;73155;-88
2023/09/12 03:25:05;;;;;;;;;;;;;;;14.76;62.03;100570.00;108606;1271;58957;-87
2023/09/12 03:27:55;;;;;;;;;;;;;;;14.66;62.14;100565.99;108629;1271;60262;-87
2023/09/12 03:31:01;;;;;;;;;;;;;;;14.66;62.11;100566.33;108643;1271;73355;-88
2023/09/12 03:34:27;;;;;;;;;;;;;;;14.71;62.18;100567.23;108641;1271;67880;-87
2023/09/12 03:37:27;;;;;;;;;;;;;;;14.72;62.14;100570.12;108810;1263;70745;-88
2023/09/12 03:40:50;;;;;;;;;;;;;;;14.72;62.10;100573.09;109161;1263;58996;-87
2023/09/12 03:44:16;;;;;;;;;;;;;;;14.67;62.12;100574.11;109189;1263;58819;-88
2023/09/12 03:47:46;;;;;;;;;;;;;;;14.59;62.20;100572.81;109176;1263;73266;-88
2023/09/12 03:51:07;;;;;;;;;;;;;;;14.58;62.22;100575.10;109215;1263;67532;-88
2023/09/12 03:54:33;;;;;;;;;;;;;;;14.59;62.27;100574.38;109170;1263;72430;-88
2023/09/12 03:57:59;;;;;;;;;;;;;;;14.52;62.32;100570.48;109188;1263;59326;-88
2023/09/12 04:01:24;;;;;;;;;;;;;;;14.52;62.42;100573.08;109192;1263;59657;-88
2023/09/12 04:04:51;;;;;;;;;;;;;;;14.56;62.46;100570.13;109187;1265;73260;-88
2023/09/12 04:08:16;;;;;;;;;;;;;;;14.60;62.50;100566.90;109175;1263;67310;-88
2023/09/12 04:11:41;;;;;;;;;;;;;;;14.60;62.42;100569.50;109131;1263;73259;-88
2023/09/12 04:15:07;;;;;;;;;;;;;;;14.63;62.43;100568.02;109199;1263;59288;-88
2023/09/12 04:18:29;;;;;;;;;;;;;;;14.63;62.40;100565.94;109167;1263;59088;-88
2023/09/12 04:21:35;;;;;;;;;;;;;;;14.62;62.48;100569.95;109140;1263;73114;-88
2023/09/12 04:25:00;;;;;;;;;;;;;;;14.60;62.43;100565.86;109206;1263;68441;-88
2023/09/12 04:28:07;;;;;;;;;;;;;;;14.60;62.50;100563.25;109160;1263;72278;-88
2023/09/12 04:31:20;;;;;;;;;;;;;;;14.58;62.58;100565.21;109136;1264;58975;-87
2023/09/12 04:34:46;;;;;;;;;;;;;;;14.58;62.65;100562.79;109197;1263;58849;-88
2023/09/12 04:38:11;;;;;;;;;;;;;;;14.56;62.66;100560.10;109207;1263;74462;-88
2023/09/12 04:41:18;;;;;;;;;;;;;;;14.54;62.63;100557.39;109168;1263;67275;-88
2023/09/12 04:44:05;;;;;;;;;;;;;;;14.52;62.68;100556.75;108862;1263;395112;-87
2023/09/12 04:46:53;;;;;;;;;;;;;;;14.49;62.70;100560.33;109015;1263;58965;-87
2023/09/12 04:50:01;;;;;;;;;;;;;;;14.49;62.76;100560.16;109015;1263;59690;-88
2023/09/12 04:53:02;;;;;;;;;;;;;;;14.50;62.72;100561.69;109133;1263;74353;-87
2023/09/12 04:55:50;;;;;;;;;;;;;;;14.50;62.69;100566.55;109168;1263;68327;-87
2023/09/12 04:58:39;;;;;;;;;;;;;;;14.52;62.78;100565.27;109183;1263;71279;-87
2023/09/12 05:01:45;;;;;;;;;;;;;;;14.56;62.76;100566.65;109020;1263;58917;-88
2023/09/12 05:04:33;;;;;;;;;;;;;;;14.61;62.79;100566.67;109165;1263;58906;-87
2023/09/12 05:07:19;;;;;;;;;;;;;;;14.64;62.71;100566.77;109024;1263;74381;-87
2023/09/12 05:10:06;;;;;;;;;;;;;;;14.65;62.83;100567.79;109017;1263;68170;-87
2023/09/12 05:12:53;;;;;;;;;;;;;;;14.66;62.92;100569.83;109017;1263;71356;-87
2023/09/12 05:15:59;;;;;;;;;;;;;;;14.72;62.93;100567.69;109026;1263;58711;-87
2023/09/12 05:18:49;;;;;;;;;;;;;;;14.77;62.99;100570.81;109162;1263;59013;-87
2023/09/12 05:21:43;;;;;;;;;;;;;;;14.84;63.05;100570.60;109026;1263;73269;-87
2023/09/12 05:24:49;;;;;;;;;;;;;;;14.91;63.01;100567.23;109142;1263;67963;-87
2023/09/12 05:27:44;;;;;;;;;;;;;;;15.02;63.09;100569.98;109133;1263;70968;-87
2023/09/12 05:30:38;;;;;;;;;;;;;;;15.12;63.01;100576.55;109034;1263;59337;-87
2023/09/12 05:33:28;;;;;;;;;;;;;;;15.16;63.01;100575.16;109039;1263;58408;-87
2023/09/12 05:36:15;;;;;;;;;;;;;;;15.18;63.06;100569.20;109015;1263;74051;-87
2023/09/12 05:39:01;;;;;;;;;;;;;;;15.22;63.07;100571.46;109029;1263;68490;-86
2023/09/12 05:42:04;;;;;;;;;;;;;;;15.28;63.27;100570.76;109037;1263;71557;-87
2023/09/12 05:45:19;;;;;;;;;;;;;;;15.42;63.40;100572.52;109160;1263;58784;-87
2023/09/12 05:48:11;;;;;;;;;;;;;;;15.58;63.39;100573.66;109015;1263;60705;-87
2023/09/12 05:51:06;;;;;;;;;;;;;;;15.77;63.45;100581.25;109026;1263;74749;-87
2023/09/12 05:53:53;;;;;;;;;;;;;;;15.93;63.48;100583.13;109032;1263;68550;-87
2023/09/12 05:56:39;;;;;;;;;;;;;;;16.03;63.38;100580.61;108969;1263;71136;-88
2023/09/12 05:59:26;;;;;;;;;;;;;;;16.13;63.41;100576.92;109022;1263;59296;-87
2023/09/12 06:02:30;;;;;;;;;;;;;;;16.25;63.51;100578.66;109057;1263;58727;-87
2023/09/12 06:05:16;;;;;;;;;;;;;;;16.44;63.50;100578.77;109014;1263;74807;-87
2023/09/12 06:08:04;;;;;;;;;;;;;;;16.83;63.48;100581.89;109170;1263;68433;-87
2023/09/12 06:10:53;;;;;;;;;;;;;;;17.51;63.85;100584.09;109147;1263;72303;-87
2023/09/12 06:13:47;;;;;;;;;;;;;;;18.42;63.59;100583.25;109006;1263;59305;-88
2023/09/12 06:17:00;;;;;;;;;;;;;;;19.31;63.41;100580.31;109033;1263;59094;-89
2023/09/12 06:20:10;;;;;;;;;;;;;;;20.18;63.02;100581.98;109169;1267;74424;-88
2023/09/12 06:23:17;;;;;;;;;;;;;;;21.06;62.67;100583.11;109186;1263;66412;-88
2023/09/12 06:26:26;;;;;;;;;;;;;;;22.03;62.50;100584.11;109138;1263;71264;-89
2023/09/12 06:29:52;;;;;;;;;;;;;;;23.01;61.99;100586.92;109141;1263;58844;-89
2023/09/12 06:33:18;;;;;;;;;;;;;;;23.98;61.71;100590.29;109175;1263;59068;-89
2023/09/12 06:36:29;;;;;;;;;;;;;;;24.82;61.44;100588.80;109157;1268;73302;-89
2023/09/12 06:39:36;;;;;;;;;;;;;;;25.58;61.10;100591.52;109196;1263;68627;-89
2023/09/12 06:42:43;;;;;;;;;;;;;;;26.31;60.71;100591.97;109157;1263;73083;-88
2023/09/12 06:45:50;;;;;;;;;;;;;;;26.93;60.47;100597.72;109119;1263;59192;-88
2023/09/12 06:48:44;;;;;;;;;;;;;;;27.65;60.12;100600.20;109158;1263;58847;-88
2023/09/12 06:51:50;;;;;;;;;;;;;;;28.26;59.90;100603.91;109164;1265;73284;-89
2023/09/12 06:55:15;;;;;;;;;;;;;;;28.94;60.07;100606.88;109154;1264;67714;-88
2023/09/12 06:58:55;;;;;;;;;;;;;;;29.80;59.47;100607.59;109130;1263;71259;-88
2023/09/12 07:01:45;;;;;;;;;;;;;;;30.54;59.22;100608.66;109176;1263;58844;-89
2023/09/12 07:04:52;;;;;;;;;;;;;;;31.23;58.59;100609.25;109052;1263;59068;-89
2023/09/12 07:07:37;;;;;;;;;;;;;;;31.91;58.30;100611.88;109129;1263;73666;-89
2023/09/12 07:10:31;;;;;;;;;;;;;;;32.28;58.19;100606.66;109125;1263;67222;-89
2023/09/12 07:13:17;;;;;;;;;;;;;;;32.94;58.22;100609.27;108979;1263;71252;-89
2023/09/12 07:16:04;;;;;;;;;;;;;;;33.83;57.71;100608.48;109027;1267;58911;-89
2023/09/12 07:18:50;;;;;;;;;;;;;;;34.62;57.18;100615.02;108992;1263;60342;-88
2023/09/12 07:21:36;;;;;;;;;;;;;;;35.21;56.55;100615.97;108989;1263;73357;-89
2023/09/12 07:24:26;;;;;;;;;;;;;;;35.19;56.35;100613.78;109039;1263;68125;-85
2023/09/12 07:27:12;;;;;;;;;;;;;;;35.24;56.66;100613.48;109012;1263;72373;-86
2023/09/12 07:29:58;;;;;;;;;;;;;;;35.64;55.96;100612.96;109048;1263;58882;-86
2023/09/12 07:32:44;;;;;;;;;;;;;;;35.88;55.36;100614.27;109135;1263;58609;-86
2023/09/12 07:35:30;;;;;;;;;;;;;;;35.46;55.15;100618.94;109025;1263;74086;-87
2023/09/12 07:38:16;;;;;;;;;;;;;;;35.01;55.06;100617.15;109058;1263;67864;-87
2023/09/12 07:41:23;;;;;;;;;;;;;;;35.01;54.95;100616.65;109083;1263;71830;-87
2023/09/12 07:44:17;;;;;;;;;;;;;;;34.94;54.20;100612.79;109146;1263;58949;-88
2023/09/12 07:47:23;;;;;;;;;;;;;;;34.77;53.84;100612.84;109041;1263;59637;-88
2023/09/12 07:50:10;;;;;;;;;;;;;;;35.75;53.10;100616.70;109142;1263;73656;-87
2023/09/12 07:52:58;;;;;;;;;;;;;;;36.84;51.83;100606.55;109020;1263;68474;-87
2023/09/12 07:55:47;;;;;;;;;;;;;;;37.77;50.96;100604.77;109071;1263;72372;-88
2023/09/12 07:58:34;;;;;;;;;;;;;;;38.73;50.40;100607.66;109041;1263;58864;-87
2023/09/12 08:01:20;;;;;;;;;;;;;;;39.60;49.99;100601.73;109044;1263;59272;-88
2023/09/12 08:04:06;;;;;;;;;;;;;;;40.41;49.25;100606.82;109004;1263;75108;-88
2023/09/12 08:06:52;;;;;;;;;;;;;;;41.10;48.99;100605.73;109025;1263;67339;-88
2023/09/12 08:09:51;;;;;;;;;;;;;;;41.78;48.52;100604.63;109134;1263;72232;-88
2023/09/12 08:12:41;;;;;;;;;;;;;;;42.42;47.91;100605.17;109089;1263;58858;-88
2023/09/12 08:15:28;;;;;;;;;;;;;;;42.90;47.45;100604.52;109018;1263;59210;-88
2023/09/12 08:18:15;;;;;;;;;;;;;;;43.12;46.83;100602.85;109110;1265;73229;-88
2023/09/12 08:21:07;;;;;;;;;;;;;;;43.57;46.64;100603.14;109006;1263;66986;-88
2023/09/12 08:23:53;;;;;;;;;;;;;;;43.85;46.17;100610.73;109127;1267;70994;-88
2023/09/12 08:26:39;;;;;;;;;;;;;;;44.06;45.82;100610.29;109043;1263;58846;-88
2023/09/12 08:29:25;;;;;;;;;;;;;;;43.43;44.99;100606.73;109176;1263;59042;-88
2023/09/12 08:32:11;;;;;;;;;;;;;;;41.39;45.60;100605.41;109026;1263;73756;-88
2023/09/12 08:34:59;;;;;;;;;;;;;;;39.59;45.67;100604.96;109033;1263;67175;-88
2023/09/12 08:37:45;;;;;;;;;;;;;;;38.07;45.66;100597.16;109020;1263;71255;-88
2023/09/12 08:40:33;;;;;;;;;;;;;;;36.80;45.24;100601.78;109089;1264;59380;-88
2023/09/12 08:43:19;;;;;;;;;;;;;;;35.54;44.73;100598.24;109012;1266;59141;-87
2023/09/12 08:46:06;;;;;;;;;;;;;;;34.38;44.69;100596.16;109057;1263;73635;-87
2023/09/12 08:48:54;;;;;;;;;;;;;;;33.35;44.39;100598.51;109046;1263;67004;-87
2023/09/12 08:51:41;;;;;;;;;;;;;;;32.62;44.21;100590.48;109147;1263;71215;-87
2023/09/12 08:54:27;;;;;;;;;;;;;;;32.01;43.93;100596.86;108974;1268;59162;-86
2023/09/12 08:57:13;;;;;;;;;;;;;;;31.44;43.53;100592.06;109014;1263;59628;-87
2023/09/12 09:00:19;;;;;;;;;;;;;;;30.96;43.45;100590.61;109003;1268;74658;-87
2023/09/12 09:03:21;;;;;;;;;;;;;;;30.49;43.59;100591.28;109126;1263;68412;-90
2023/09/12 09:06:11;;;;;;;;;;;;;;;30.07;43.31;100590.67;109132;1264;70935;-90
2023/09/12 09:09:04;;;;;;;;;;;;;;;29.74;43.46;100589.79;109024;1263;58893;-89
2023/09/12 09:12:10;;;;;;;;;;;;;;;29.35;43.23;100580.48;109165;1263;59658;-90
2023/09/12 09:15:16;;;;;;;;;;;;;;;29.07;43.33;100583.34;109129;1268;73325;-90
2023/09/12 09:18:42;;;;;;;;;;;;;;;28.70;43.28;100581.61;109159;1264;68673;-90
2023/09/12 09:22:08;;;;;;;;;;;;;;;28.41;43.30;100584.63;109144;1263;72001;-89
2023/09/12 09:25:14;;;;;;;;;;;;;;;28.16;43.32;100579.66;109167;1267;58896;-90
2023/09/12 09:28:39;;;;;;;;;;;;;;;27.92;43.52;100581.69;109003;1263;58931;-90
2023/09/12 09:31:45;;;;;;;;;;;;;;;27.76;43.55;100574.09;109141;1263;73056;-90
2023/09/12 09:35:11;;;;;;;;;;;;;;;27.60;43.74;100570.67;109160;1263;67505;-90
2023/09/12 09:38:25;;;;;;;;;;;;;;;27.46;43.49;100569.25;109159;1264;73163;-89
2023/09/12 09:41:32;;;;;;;;;;;;;;;27.29;43.72;100566.14;109104;1268;58827;-89
2023/09/12 09:44:38;;;;;;;;;;;;;;;27.22;43.76;100567.27;109017;1263;60344;-89
2023/09/12 09:48:04;;;;;;;;;;;;;;;27.16;43.98;100569.59;109167;1263;73152;-89
2023/09/12 09:51:18;;;;;;;;;;;;;;;27.14;44.01;100569.25;109176;1264;67298;-89
2023/09/12 09:54:24;;;;;;;;;;;;;;;27.13;44.05;100570.05;109148;1264;71192;-89
2023/09/12 09:57:11;;;;;;;;;;;;;;;27.08;43.95;100569.77;109148;1264;59186;-90
2023/09/12 10:00:07;;;;;;;;;;;;;;;27.06;44.09;100571.70;109066;1263;58954;-89
2023/09/12 10:03:07;;;;;;;;;;;;;;;27.03;44.21;100575.26;109054;1263;73289;-89
2023/09/12 10:06:05;;;;;;;;;;;;;;;27.03;44.33;100568.02;109119;1264;67044;-89
2023/09/12 10:09:31;;;;;;;;;;;;;;;27.04;44.37;100565.27;109173;1264;71077;-89
2023/09/12 10:12:38;;;;;;;;;;;;;;;27.04;44.40;100558.52;109187;1264;58343;-90
2023/09/12 10:15:42;;;;;;;;;;;;;;;27.03;44.63;100552.86;109174;1263;59091;-89
2023/09/12 10:18:35;;;;;;;;;;;;;;;27.01;44.52;100551.55;109016;1263;74685;-89
2023/09/12 10:21:48;;;;;;;;;;;;;;;27.01;44.58;100550.91;109150;1264;67410;-89
2023/09/12 10:24:44;;;;;;;;;;;;;;;27.02;44.51;100550.13;108957;1264;72442;-89
2023/09/12 10:27:46;;;;;;;;;;;;;;;27.00;44.53;100550.14;109165;1263;59225;-89
2023/09/12 10:30:37;;;;;;;;;;;;;;;27.00;44.66;100546.23;109069;1263;58939;-89
2023/09/12 10:33:44;;;;;;;;;;;;;;;27.00;44.79;100548.81;109169;1263;73199;-89
2023/09/12 10:36:50;;;;;;;;;;;;;;;27.02;44.79;100552.00;109042;1264;67334;-89
2023/09/12 10:39:59;;;;;;;;;;;;;;;27.02;44.74;100551.87;109190;1263;71371;-89
2023/09/12 10:43:05;;;;;;;;;;;;;;;27.00;44.42;100549.00;109195;1264;58802;-89
2023/09/12 10:45:51;;;;;;;;;;;;;;;27.00;44.45;100554.12;109175;1264;58903;-89
2023/09/12 10:48:46;;;;;;;;;;;;;;;27.03;44.27;100556.02;109054;1264;73383;-89
2023/09/12 10:51:37;;;;;;;;;;;;;;;27.02;44.27;100558.20;109064;1264;67236;-89
2023/09/12 10:54:37;;;;;;;;;;;;;;;27.01;44.33;100553.54;109057;1264;71817;-89
2023/09/12 10:57:24;;;;;;;;;;;;;;;27.02;44.44;100552.92;109059;1263;58972;-89
2023/09/12 11:00:11;;;;;;;;;;;;;;;27.04;44.20;100549.91;109071;1264;61124;-89
2023/09/12 11:02:57;;;;;;;;;;;;;;;27.05;44.38;100550.73;109031;1264;73093;-89
2023/09/12 11:05:58;;;;;;;;;;;;;;;27.05;44.38;100549.79;109043;1263;68241;-89
2023/09/12 11:09:11;;;;;;;;;;;;;;;27.06;44.25;100548.52;109196;1264;71174;-89
2023/09/12 11:12:01;;;;;;;;;;;;;;;27.05;44.24;100551.42;109168;1264;58922;-89
2023/09/12 11:15:11;;;;;;;;;;;;;;;27.05;44.30;100549.48;109060;1264;59073;-89
2023/09/12 11:18:20;;;;;;;;;;;;;;;27.06;44.18;100543.52;108988;1263;74568;-89
2023/09/12 11:21:33;;;;;;;;;;;;;;;27.06;44.12;100546.73;101576;1264;10002194;-88
2023/09/12 11:24:20;;;;;;;;;;;;;;;27.06;44.08;100536.88;109047;1263;59226;-88
2023/09/12 11:27:08;;;;;;;;;;;;;;;27.07;44.20;100537.29;109059;1267;58645;-88
2023/09/12 11:30:02;;;;;;;;;;;;;;;27.06;44.04;100538.75;109027;1264;73868;-88
2023/09/12 11:32:50;;;;;;;;;;;;;;;27.05;44.12;100541.81;109187;1263;68859;-88
2023/09/12 11:35:45;;;;;;;;;;;;;;;27.09;44.12;100538.68;109195;1264;71291;-88
2023/09/12 11:38:32;;;;;;;;;;;;;;;27.14;44.18;100541.76;109032;1264;58900;-88
2023/09/12 11:41:47;;;;;;;;;;;;;;;27.19;44.25;100549.66;109052;1264;59561;-88
2023/09/12 11:44:33;;;;;;;;;;;;;;;27.21;44.01;100549.86;108613;1271;73212;-88
2023/09/12 11:47:20;;;;;;;;;;;;;;;27.20;43.86;100548.82;108624;1271;67032;-88
2023/09/12 11:50:06;;;;;;;;;;;;;;;27.23;44.10;100543.80;108529;1272;70912;-88
2023/09/12 11:52:59;;;;;;;;;;;;;;;27.24;44.09;100539.51;108604;1271;59022;-88
2023/09/12 11:55:47;;;;;;;;;;;;;;;27.25;44.15;100538.55;108579;1273;60383;-88
2023/09/12 11:58:33;;;;;;;;;;;;;;;27.23;44.19;100539.37;108604;1271;74370;-87
2023/09/12 12:01:19;;;;;;;;;;;;;;;27.23;44.07;100541.13;108619;1271;67025;-88
2023/09/12 12:04:06;;;;;;;;;;;;;;;27.22;44.05;100537.01;108598;1271;71121;-88
2023/09/12 12:06:52;;;;;;;;;;;;;;;27.24;44.13;100531.88;108558;1273;59271;-88
2023/09/12 12:09:39;;;;;;;;;;;;;;;27.29;44.14;100538.19;108597;1273;59021;-88
2023/09/12 12:12:25;;;;;;;;;;;;;;;27.33;44.06;100541.36;108587;1271;73079;-88
2023/09/12 12:15:12;;;;;;;;;;;;;;;27.35;43.94;100543.66;108583;1271;68269;-88
2023/09/12 12:17:58;;;;;;;;;;;;;;;27.36;43.94;100538.80;108574;1271;71264;-88
2023/09/12 12:20:45;;;;;;;;;;;;;;;27.35;43.89;100540.79;108830;1263;58877;-88
2023/09/12 12:23:30;;;;;;;;;;;;;;;27.36;43.72;100541.99;109180;1263;60219;-88
2023/09/12 12:26:17;;;;;;;;;;;;;;;27.36;43.77;100537.02;109072;1263;73268;-88
2023/09/12 12:29:04;;;;;;;;;;;;;;;27.38;43.87;100534.53;109169;1264;67051;-88
2023/09/12 12:31:50;;;;;;;;;;;;;;;27.38;43.69;100530.67;109024;1264;71149;-88
2023/09/12 12:34:36;;;;;;;;;;;;;;;27.39;43.82;100531.48;109104;1263;58708;-88
2023/09/12 12:37:30;;;;;;;;;;;;;;;27.41;43.57;100527.80;109172;1263;58915;-88
2023/09/12 12:40:19;;;;;;;;;;;;;;;27.42;43.58;100517.41;109177;1263;73179;-87
2023/09/12 12:43:06;;;;;;;;;;;;;;;27.43;43.72;100513.59;109023;1263;68220;-88
2023/09/12 12:45:52;;;;;;;;;;;;;;;27.45;43.67;100511.33;109060;1263;71144;-88
2023/09/12 12:48:43;;;;;;;;;;;;;;;27.45;43.61;100509.84;109084;1265;58656;-88
2023/09/12 12:51:30;;;;;;;;;;;;;;;27.44;43.50;100508.50;109062;1263;58792;-88
2023/09/12 12:54:16;;;;;;;;;;;;;;;27.44;43.54;100504.16;109169;1263;73197;-88
2023/09/12 12:57:02;;;;;;;;;;;;;;;27.41;43.59;100497.16;109048;1263;67490;-88
2023/09/12 12:59:49;;;;;;;;;;;;;;;27.40;43.71;100488.91;109054;1263;71783;-87
2023/09/12 13:02:36;;;;;;;;;;;;;;;27.39;43.78;100487.38;109043;1263;58852;-88
2023/09/12 13:05:26;;;;;;;;;;;;;;;27.39;43.50;100489.19;109016;1263;59422;-88
2023/09/12 13:08:12;;;;;;;;;;;;;;;27.37;43.58;100486.67;109046;1263;73107;-88
2023/09/12 13:10:58;;;;;;;;;;;;;;;27.34;43.43;100486.55;109132;1264;68583;-88
2023/09/12 13:13:47;;;;;;;;;;;;;;;27.32;43.41;100484.84;109021;1263;71169;-88
2023/09/12 13:16:34;;;;;;;;;;;;;;;27.32;43.44;100483.53;109007;1263;58903;-87
2023/09/12 13:19:20;;;;;;;;;;;;;;;27.33;43.45;100480.79;109150;1263;59112;-87
2023/09/12 13:22:07;;;;;;;;;;;;;;;27.37;43.67;100479.44;109041;1264;73436;-88
2023/09/12 13:24:53;;;;;;;;;;;;;;;27.38;43.47;100483.60;109046;1263;67355;-87
2023/09/12 13:27:38;;;;;;;;;;;;;;;27.34;43.46;100481.58;109031;1263;71276;-88
2023/09/12 13:30:24;;;;;;;;;;;;;;;27.32;43.53;100481.77;109200;1263;58859;-88
2023/09/12 13:33:11;;;;;;;;;;;;;;;27.32;43.75;100478.94;109190;1263;59283;-88
2023/09/12 13:35:56;;;;;;;;;;;;;;;27.38;43.71;100472.45;109147;1263;73650;-88
2023/09/12 13:38:42;;;;;;;;;;;;;;;27.39;43.67;100478.74;109144;1263;67244;-88
2023/09/12 13:41:29;;;;;;;;;;;;;;;27.36;43.50;100486.17;109065;1263;71264;-88
2023/09/12 13:44:16;;;;;;;;;;;;;;;27.37;43.58;100483.15;109026;1263;58870;-87
2023/09/12 13:47:02;;;;;;;;;;;;;;;27.37;43.51;100482.79;109169;1263;58530;-88
2023/09/12 13:49:51;;;;;;;;;;;;;;;27.34;43.54;100478.09;109037;1263;73175;-88
2023/09/12 13:52:38;;;;;;;;;;;;;;;27.35;43.52;100483.84;109045;1263;68397;-88
2023/09/12 13:55:24;;;;;;;;;;;;;;;27.33;43.57;100481.83;109153;1263;72384;-88
2023/09/12 13:58:10;;;;;;;;;;;;;;;27.33;43.51;100483.62;109020;1263;58952;-88
2023/09/12 14:00:56;;;;;;;;;;;;;;;27.33;43.45;100481.74;109085;1263;58686;-88
2023/09/12 14:03:41;;;;;;;;;;;;;;;27.33;43.48;100481.52;109044;1263;74009;-88
2023/09/12 14:06:27;;;;;;;;;;;;;;;27.33;43.41;100480.65;109157;1263;67367;-87
2023/09/12 14:09:15;;;;;;;;;;;;;;;27.31;43.31;100480.45;109044;1263;73023;-88
2023/09/12 14:12:01;;;;;;;;;;;;;;;27.29;43.44;100475.86;109042;1263;59022;-88
2023/09/12 14:14:48;;;;;;;;;;;;;;;27.27;43.42;100471.41;109065;1263;59676;-88
2023/09/12 14:17:34;;;;;;;;;;;;;;;27.29;43.37;100472.34;109051;1263;74235;-88
2023/09/12 14:20:20;;;;;;;;;;;;;;;27.29;43.25;100470.05;109058;1263;68039;-88
2023/09/12 14:23:05;;;;;;;;;;;;;;;27.26;43.34;100472.02;109037;1263;72970;-88
2023/09/12 14:25:51;;;;;;;;;;;;;;;27.26;43.45;100475.27;109193;1263;59239;-88
2023/09/12 14:28:37;;;;;;;;;;;;;;;27.26;43.44;100476.52;109191;1263;58396;-88
2023/09/12 14:31:23;;;;;;;;;;;;;;;27.23;43.34;100478.66;109077;1263;74081;-87
2023/09/12 14:34:09;;;;;;;;;;;;;;;27.21;43.18;100479.58;109057;1263;68838;-88
2023/09/12 14:36:56;;;;;;;;;;;;;;;27.19;43.28;100481.86;109202;1263;71065;-88
2023/09/12 14:39:42;;;;;;;;;;;;;;;27.17;43.33;100484.73;109050;1263;58920;-88
2023/09/12 14:42:28;;;;;;;;;;;;;;;27.16;43.20;100483.94;109238;1263;58732;-88
2023/09/12 14:45:14;;;;;;;;;;;;;;;27.14;43.39;100485.17;109183;1263;74660;-88
2023/09/12 14:48:01;;;;;;;;;;;;;;;27.12;43.37;100486.39;109023;1263;67326;-88
2023/09/12 14:50:50;;;;;;;;;;;;;;;27.10;43.60;100486.08;109062;1263;71224;-87
2023/09/12 14:53:38;;;;;;;;;;;;;;;27.08;43.45;100481.67;109025;1263;58955;-87
2023/09/12 14:56:24;;;;;;;;;;;;;;;27.06;43.54;100483.06;109019;1263;60291;-87
2023/09/12 14:59:10;;;;;;;;;;;;;;;27.03;43.62;100487.20;109047;1263;73894;-88
2023/09/12 15:02:05;;;;;;;;;;;;;;;26.97;43.58;100485.38;109024;1263;68176;-88
2023/09/12 15:04:52;;;;;;;;;;;;;;;26.91;43.55;100484.31;109036;1263;71480;-88
2023/09/12 15:07:58;;;;;;;;;;;;;;;26.88;43.62;100483.73;109048;1263;59277;-87
2023/09/12 15:10:45;;;;;;;;;;;;;;;26.82;43.73;100487.02;109217;1263;59713;-88
2023/09/12 15:13:31;;;;;;;;;;;;;;;26.77;43.79;100489.79;109190;1263;74034;-86
2023/09/12 15:16:18;;;;;;;;;;;;;;;26.70;43.80;100491.23;109044;1263;67313;-87
2023/09/12 15:19:04;;;;;;;;;;;;;;;26.65;43.72;100490.06;108971;1263;72477;-87